createdAt,value
2019-04-20T00:01:28.123Z,10.42
2019-04-20T00:03:56.824Z,10.34
2019-04-20T00:06:31.648Z,10.35
2019-04-20T00:09:12.255Z,10.36
2019-04-20T00:11:49.310Z,10.29
2019-04-20T00:14:19.705Z,10.29
2019-04-20T00:16:50.578Z,10.21
2019-04-20T00:19:33.408Z,10.15
2019-04-20T00:22:07.065Z,10.05
2019-04-20T00:24:50.555Z,10.01
2019-04-20T00:27:46.665Z,9.93
2019-04-20T00:30:21.257Z,9.81
2019-04-20T00:32:46.617Z,9.80
2019-04-20T00:35:06.277Z,9.80
2019-04-20T00:37:40.188Z,9.74
2019-04-20T00:40:13.483Z,9.66
2019-04-20T00:42:51.984Z,9.59
2019-04-20T00:45:25.728Z,9.52
2019-04-20T00:48:03.443Z,9.52
2019-04-20T00:50:44.423Z,9.49
2019-04-20T00:53:19.565Z,9.44
2019-04-20T00:55:40.383Z,9.41
2019-04-20T00:58:20.173Z,9.36
2019-04-20T01:01:06.961Z,9.34
2019-04-20T01:03:38.968Z,9.28
2019-04-20T01:06:23.406Z,9.24
2019-04-20T01:08:55.650Z,9.25
2019-04-20T01:11:36.411Z,9.18
2019-04-20T01:14:10.658Z,9.16
2019-04-20T01:16:50.550Z,9.16
2019-04-20T01:19:19.286Z,9.13
2019-04-20T01:21:58.804Z,9.04
2019-04-20T01:24:31.395Z,9.03
2019-04-20T01:27:03.456Z,9.05
2019-04-20T01:29:43.884Z,9.03
2019-04-20T01:32:20.842Z,8.97
2019-04-20T01:34:55.085Z,8.85
2019-04-20T01:37:35.424Z,8.84
2019-04-20T01:39:55.896Z,8.84
2019-04-20T01:42:27.905Z,8.77
2019-04-20T01:45:02.074Z,8.68
2019-04-20T01:47:41.630Z,8.65
2019-04-20T01:50:18.598Z,8.60
2019-04-20T01:52:56.465Z,8.57
2019-04-20T01:55:42.561Z,8.55
2019-04-20T01:58:43.556Z,8.48
2019-04-20T02:01:21.128Z,8.45
2019-04-20T02:04:06.382Z,8.43
2019-04-20T02:06:43.412Z,8.36
2019-04-20T02:09:18.679Z,8.27
2019-04-20T02:11:50.812Z,8.23
2019-04-20T02:14:28.747Z,8.16
2019-04-20T02:17:08.664Z,8.17
2019-04-20T02:19:41.341Z,8.13
2019-04-20T02:22:22.724Z,8.12
2019-04-20T02:24:40.845Z,8.17
2019-04-20T02:27:14.751Z,8.12
2019-04-20T02:30:13.532Z,8.06
2019-04-20T02:33:11.948Z,8.01
2019-04-20T02:36:15.096Z,7.92
2019-04-20T02:39:05.168Z,7.88
2019-04-20T02:41:36.027Z,7.76
2019-04-20T02:44:03.455Z,7.73
2019-04-20T02:46:24.634Z,7.66
2019-04-20T02:49:00.688Z,7.69
2019-04-20T02:51:39.291Z,7.68
2019-04-20T02:56:48.388Z,7.67
2019-04-20T02:59:52.108Z,7.66
2019-04-20T03:01:40.711Z,7.60
2019-04-20T03:04:00.752Z,7.58
2019-04-20T03:06:42.329Z,7.56
2019-04-20T03:09:31.517Z,7.58
2019-04-20T03:12:04.490Z,7.54
2019-04-20T03:14:33.152Z,7.53
2019-04-20T03:17:15.334Z,7.51
2019-04-20T03:19:41.438Z,7.48
2019-04-20T03:22:24.632Z,7.42
2019-04-20T03:24:59.090Z,7.41
2019-04-20T03:27:41.029Z,7.39
2019-04-20T03:33:44.169Z,7.34
2019-04-20T03:36:10.323Z,7.26
2019-04-20T03:38:33.271Z,7.21
2019-04-20T03:40:56.489Z,7.16
2019-04-20T03:43:20.192Z,7.15
2019-04-20T03:45:59.580Z,7.13
2019-04-20T03:48:45.261Z,7.13
2019-04-20T03:51:29.119Z,7.12
2019-04-20T03:54:29.805Z,7.14
2019-04-20T03:57:21.412Z,7.19
2019-04-20T04:00:00.381Z,7.26
2019-04-20T04:03:01.576Z,7.25
2019-04-20T04:05:42.218Z,7.22
2019-04-20T04:08:10.332Z,7.17
2019-04-20T04:10:54.928Z,7.19
2019-04-20T04:13:16.763Z,7.29
2019-04-20T04:15:57.775Z,7.41
2019-04-20T04:18:34.730Z,7.55
2019-04-20T04:21:07.631Z,7.63
2019-04-20T04:23:54.472Z,7.76
2019-04-20T04:26:28.972Z,7.88
2019-04-20T04:29:08.649Z,8.01
2019-04-20T04:31:38.325Z,8.10
2019-04-20T04:34:14.708Z,8.20
2019-04-20T04:36:49.746Z,8.27
2019-04-20T04:39:25.199Z,8.21
2019-04-20T04:42:07.494Z,8.07
2019-04-20T04:44:26.321Z,7.87
2019-04-20T04:46:54.682Z,7.72
2019-04-20T04:49:28.415Z,7.61
2019-04-20T04:52:06.257Z,7.53
2019-04-20T04:54:44.600Z,7.50
2019-04-20T04:57:09.504Z,7.64
2019-04-20T04:59:42.597Z,7.79
2019-04-20T05:02:15.975Z,7.90
2019-04-20T05:05:25.223Z,7.96
2019-04-20T05:07:52.083Z,8.09
2019-04-20T05:10:14.050Z,8.10
2019-04-20T05:12:48.191Z,8.09
2019-04-20T05:15:37.676Z,8.13
2019-04-20T05:18:16.198Z,8.11
2019-04-20T05:20:53.390Z,8.15
2019-04-20T05:23:29.521Z,8.17
2019-04-20T05:26:29.900Z,8.21
2019-04-20T05:29:03.429Z,8.20
2019-04-20T05:31:34.890Z,8.20
2019-04-20T05:34:26.293Z,8.16
2019-04-20T05:36:55.624Z,8.19
2019-04-20T05:39:36.852Z,8.27
2019-04-20T05:42:13.301Z,8.29
2019-04-20T05:44:45.814Z,8.36
2019-04-20T05:47:21.475Z,8.37
2019-04-20T05:49:50.091Z,8.45
2019-04-20T05:52:35.180Z,8.48
2019-04-20T05:55:02.690Z,8.54
2019-04-20T05:57:40.106Z,8.67
2019-04-20T06:00:14.607Z,8.77
2019-04-20T06:02:52.786Z,8.87
2019-04-20T06:05:23.913Z,9.00
2019-04-20T06:07:59.082Z,9.06
2019-04-20T06:10:39.677Z,9.11
2019-04-20T06:13:07.484Z,9.16
2019-04-20T06:15:53.985Z,9.24
2019-04-20T06:18:24.091Z,9.41
2019-04-20T06:21:15.897Z,9.58
2019-04-20T06:23:59.342Z,9.65
2019-04-20T06:29:10.162Z,10.02
2019-04-20T06:31:45.964Z,10.16
2019-04-20T06:44:41.174Z,10.95
2019-04-20T06:47:22.788Z,11.22
2019-04-20T06:49:55.090Z,11.43
2019-04-20T06:52:27.409Z,11.58
2019-04-20T06:57:48.603Z,11.76
2019-04-20T07:02:54.355Z,11.99
2019-04-20T07:05:45.771Z,12.17
2019-04-20T07:08:16.839Z,12.37
2019-04-20T07:10:49.482Z,12.66
2019-04-20T07:13:07.948Z,12.85
2019-04-20T07:15:56.844Z,13.08
2019-04-20T07:18:43.710Z,13.21
2019-04-20T07:21:26.413Z,13.39
2019-04-20T07:24:05.056Z,13.73
2019-04-20T07:26:37.371Z,13.96
2019-04-20T07:29:10.118Z,14.12
2019-04-20T07:31:36.642Z,14.58
2019-04-20T07:34:18.352Z,14.65
2019-04-20T07:37:04.382Z,14.94
2019-04-20T07:39:27.922Z,14.98
2019-04-20T07:42:08.934Z,15.15
2019-04-20T07:44:41.175Z,15.58
2019-04-20T07:47:18.378Z,15.99
2019-04-20T07:49:44.381Z,16.07
2019-04-20T07:51:59.650Z,16.07
2019-04-20T07:55:12.185Z,16.40
2019-04-20T07:57:24.268Z,16.68
2019-04-20T08:00:00.368Z,16.76
2019-04-20T08:03:04.505Z,17.06
2019-04-20T08:05:34.689Z,17.15
2019-04-20T08:08:14.875Z,17.35
2019-04-20T08:10:47.323Z,17.43
2019-04-20T08:13:33.377Z,17.52
2019-04-20T08:16:03.086Z,17.87
2019-04-20T08:18:39.975Z,18.18
2019-04-20T08:21:08.228Z,18.44
2019-04-20T08:23:47.328Z,18.78
2019-04-20T08:26:05.482Z,18.95
2019-04-20T08:28:56.778Z,19.17
2019-04-20T08:32:04.828Z,18.92
2019-04-20T08:34:42.045Z,19.06
2019-04-20T08:37:11.628Z,18.65
2019-04-20T08:39:58.327Z,18.75
2019-04-20T08:42:23.219Z,18.46
2019-04-20T08:45:03.941Z,18.73
2019-04-20T08:47:44.835Z,18.97
2019-04-20T08:55:23.906Z,19.90
2019-04-20T08:57:44.450Z,20.42
2019-04-20T09:00:27.490Z,20.74
2019-04-20T09:02:59.241Z,21.15
2019-04-20T09:05:40.060Z,21.24
2019-04-20T09:08:11.327Z,21.65
2019-04-20T09:10:56.501Z,21.94
2019-04-20T09:13:21.205Z,21.92
2019-04-20T09:15:49.289Z,22.21
2019-04-20T09:18:56.910Z,21.85
2019-04-20T09:21:36.871Z,22.14
2019-04-20T09:24:22.906Z,22.52
2019-04-20T09:26:59.144Z,22.92
2019-04-20T09:29:21.000Z,23.34
2019-04-20T09:32:14.181Z,23.07
2019-04-20T09:34:57.066Z,22.21
2019-04-20T09:37:43.140Z,22.30
2019-04-20T09:40:58.335Z,22.58
2019-04-20T09:43:10.887Z,21.74
2019-04-20T09:45:48.982Z,21.65
2019-04-20T09:48:31.320Z,22.03
2019-04-20T09:51:16.948Z,22.29
2019-04-20T09:53:45.462Z,22.77
2019-04-20T09:56:19.440Z,22.55
2019-04-20T09:59:06.456Z,22.61
2019-04-20T10:01:31.050Z,22.43
2019-04-20T10:03:56.983Z,22.54
2019-04-20T10:06:34.537Z,22.21
2019-04-20T10:09:09.676Z,22.54
2019-04-20T10:11:46.780Z,23.34
2019-04-20T10:14:20.042Z,22.98
2019-04-20T10:16:53.822Z,22.86
2019-04-20T10:19:32.441Z,22.77
2019-04-20T10:22:02.506Z,22.69
2019-04-20T10:24:36.900Z,22.92
2019-04-20T10:27:10.544Z,23.30
2019-04-20T10:29:46.333Z,23.15
2019-04-20T10:32:31.087Z,22.98
2019-04-20T10:35:02.475Z,23.05
2019-04-20T10:37:45.143Z,23.07
2019-04-20T10:40:32.623Z,23.10
2019-04-20T10:42:53.294Z,23.11
2019-04-20T10:45:26.825Z,22.90
2019-04-20T10:48:01.109Z,23.19
2019-04-20T10:50:34.754Z,23.59
2019-04-20T10:53:07.989Z,23.48
2019-04-20T10:55:41.170Z,23.30
2019-04-20T10:58:14.094Z,23.38
2019-04-20T11:00:49.878Z,23.32
2019-04-20T11:03:22.886Z,22.94
2019-04-20T11:05:56.471Z,22.94
2019-04-20T11:08:30.684Z,22.82
2019-04-20T11:11:12.704Z,22.81
2019-04-20T11:13:39.357Z,22.96
2019-04-20T11:16:12.694Z,23.04
2019-04-20T11:18:45.689Z,23.38
2019-04-20T11:21:19.614Z,23.17
2019-04-20T11:23:54.026Z,23.58
2019-04-20T11:26:28.476Z,23.74
2019-04-20T11:29:04.114Z,23.37
2019-04-20T11:31:43.188Z,23.01
2019-04-20T11:34:14.983Z,23.04
2019-04-20T11:36:46.918Z,23.10
2019-04-20T11:39:20.929Z,23.31
2019-04-20T11:41:53.986Z,23.34
2019-04-20T11:44:30.312Z,23.24
2019-04-20T11:47:03.386Z,23.02
2019-04-20T11:49:37.596Z,23.02
2019-04-20T11:52:16.498Z,22.98
2019-04-20T11:54:48.587Z,22.81
2019-04-20T11:57:21.706Z,23.33
2019-04-20T11:59:55.028Z,23.45
2019-04-20T12:02:40.422Z,23.61
2019-04-20T12:05:21.262Z,23.59
2019-04-20T12:08:07.069Z,22.95
2019-04-20T12:10:43.860Z,22.63
2019-04-20T12:13:16.356Z,22.02
2019-04-20T12:15:49.691Z,22.02
2019-04-20T12:18:23.409Z,22.09
2019-04-20T12:20:58.935Z,22.34
2019-04-20T12:23:32.127Z,22.25
2019-04-20T12:26:05.028Z,22.58
2019-04-20T12:28:38.017Z,22.81
2019-04-20T12:31:15.597Z,23.01
2019-04-20T12:33:46.507Z,22.96
2019-04-20T12:36:20.601Z,22.79
2019-04-20T12:38:54.919Z,22.93
2019-04-20T12:41:37.586Z,23.09
2019-04-20T12:44:03.885Z,22.86
2019-04-20T12:46:38.122Z,22.95
2019-04-20T12:49:11.669Z,23.00
2019-04-20T12:51:53.983Z,22.95
2019-04-20T12:54:20.843Z,22.89
2019-04-20T12:56:53.702Z,22.72
2019-04-20T12:59:27.555Z,22.73
2019-04-20T13:02:01.642Z,22.82
2019-04-20T13:04:35.284Z,22.88
2019-04-20T13:07:08.376Z,22.98
2019-04-20T13:09:52.679Z,22.74
2019-04-20T13:12:44.566Z,22.79
2019-04-20T13:15:28.834Z,22.62
2019-04-20T13:18:03.253Z,22.61
2019-04-20T13:20:36.329Z,22.45
2019-04-20T13:23:11.030Z,22.53
2019-04-20T13:25:44.137Z,22.44
2019-04-20T13:28:17.084Z,22.03
2019-04-20T13:30:50.174Z,21.81
2019-04-20T13:33:23.179Z,21.69
2019-04-20T13:35:56.422Z,21.44
2019-04-20T13:38:30.183Z,21.16
2019-04-20T13:41:04.065Z,21.12
2019-04-20T13:43:38.191Z,21.25
2019-04-20T13:46:11.191Z,21.42
2019-04-20T13:48:44.821Z,21.37
2019-04-20T13:51:18.857Z,21.12
2019-04-20T13:53:53.270Z,21.01
2019-04-20T13:56:27.750Z,21.06
2019-04-20T13:59:23.557Z,21.13
2019-04-20T14:02:15.472Z,21.28
2019-04-20T14:05:06.823Z,21.21
2019-04-20T14:07:41.747Z,21.29
2019-04-20T14:10:15.431Z,21.12
2019-04-20T14:12:57.292Z,21.10
2019-04-20T14:15:23.138Z,20.97
2019-04-20T14:17:57.285Z,20.98
2019-04-20T14:20:30.189Z,20.86
2019-04-20T14:23:03.239Z,20.75
2019-04-20T14:25:36.752Z,20.76
2019-04-20T14:28:11.220Z,20.73
2019-04-20T14:30:45.940Z,20.71
2019-04-20T14:33:19.372Z,20.61
2019-04-20T14:35:52.767Z,20.43
2019-04-20T14:38:26.404Z,20.29
2019-04-20T14:41:00.114Z,20.27
2019-04-20T14:43:34.663Z,20.26
2019-04-20T14:46:08.544Z,20.22
2019-04-20T14:48:42.685Z,20.19
2019-04-20T14:51:15.658Z,20.10
2019-04-20T14:53:49.497Z,20.07
2019-04-20T14:56:23.444Z,19.95
2019-04-20T14:59:02.986Z,19.93
2019-04-20T15:01:42.695Z,19.90
2019-04-20T15:04:19.502Z,19.94
2019-04-20T15:06:52.625Z,19.96
2019-04-20T15:09:26.709Z,19.95
2019-04-20T15:12:00.945Z,20.00
2019-04-20T15:14:34.601Z,20.02
2019-04-20T15:17:10.798Z,20.04
2019-04-20T15:20:09.713Z,20.09
2019-04-20T15:22:49.787Z,20.23
2019-04-20T15:25:23.376Z,20.37
2019-04-20T15:28:00.559Z,20.45
2019-04-20T15:30:34.224Z,20.42
2019-04-20T15:33:07.365Z,20.46
2019-04-20T15:35:40.341Z,20.52
2019-04-20T15:38:13.369Z,20.35
2019-04-20T15:40:46.974Z,20.23
2019-04-20T15:43:24.033Z,20.21
2019-04-20T15:45:55.243Z,20.22
2019-04-20T15:48:28.277Z,20.13
2019-04-20T15:51:01.737Z,20.03
2019-04-20T15:53:35.513Z,19.99
2019-04-20T15:56:11.564Z,19.88
2019-04-20T15:58:44.246Z,19.71
2019-04-20T16:01:20.730Z,19.49
2019-04-20T16:03:59.350Z,19.41
2019-04-20T16:06:32.848Z,19.31
2019-04-20T16:09:10.209Z,19.42
2019-04-20T16:11:46.698Z,19.39
2019-04-20T16:14:21.544Z,19.33
2019-04-20T16:16:56.164Z,19.26
2019-04-20T16:19:39.492Z,19.23
2019-04-20T16:22:04.166Z,19.20
2019-04-20T16:24:42.759Z,19.21
2019-04-20T16:27:33.934Z,19.19
2019-04-20T16:30:09.619Z,19.21
2019-04-20T16:32:43.179Z,19.21
2019-04-20T16:35:16.374Z,19.19
2019-04-20T16:37:50.745Z,19.10
2019-04-20T16:40:25.328Z,19.06
2019-04-20T16:42:58.551Z,19.02
2019-04-20T16:45:32.930Z,18.99
2019-04-20T16:48:06.777Z,18.98
2019-04-20T16:50:40.743Z,19.01
2019-04-20T16:53:15.016Z,18.97
2019-04-20T16:55:48.498Z,18.94
2019-04-20T16:58:21.766Z,18.88
2019-04-20T17:00:55.911Z,18.86
2019-04-20T17:03:40.804Z,18.84
2019-04-20T17:06:04.543Z,18.82
2019-04-20T17:08:40.852Z,18.77
2019-04-20T17:11:13.647Z,18.75
2019-04-20T17:13:50.095Z,18.74
2019-04-20T17:16:21.963Z,18.70
2019-04-20T17:18:55.328Z,18.67
2019-04-20T17:21:30.652Z,18.60
2019-04-20T17:24:03.764Z,18.61
2019-04-20T17:26:45.135Z,18.53
2019-04-20T17:29:26.200Z,18.49
2019-04-20T17:32:09.871Z,18.45
2019-04-20T17:34:58.368Z,18.37
2019-04-20T17:37:20.695Z,18.27
2019-04-20T17:40:11.130Z,18.21
2019-04-20T17:42:41.288Z,18.16
2019-04-20T17:45:11.368Z,18.10
2019-04-20T17:47:57.829Z,18.06
2019-04-20T17:50:34.833Z,18.01
2019-04-20T17:53:04.073Z,17.96
2019-04-20T17:55:44.940Z,17.89
2019-04-20T17:58:21.936Z,17.82
2019-04-20T18:01:04.968Z,17.72
2019-04-20T18:04:22.968Z,17.65
2019-04-20T18:06:32.441Z,17.54
2019-04-20T18:09:05.203Z,17.43
2019-04-20T18:11:27.075Z,17.27
2019-04-20T18:14:16.904Z,17.14
2019-04-20T18:16:56.395Z,16.99
2019-04-20T18:19:22.261Z,16.90
2019-04-20T18:21:58.802Z,16.76
2019-04-20T18:24:55.887Z,16.66
2019-04-20T18:27:27.915Z,16.48
2019-04-20T18:30:01.450Z,16.34
2019-04-20T18:32:35.596Z,16.26
2019-04-20T18:35:22.493Z,16.12
2019-04-20T18:38:00.792Z,15.97
2019-04-20T18:40:37.677Z,15.82
2019-04-20T18:43:12.598Z,15.69
2019-04-20T18:46:01.525Z,15.59
2019-04-20T18:48:39.433Z,15.40
2019-04-20T18:50:50.774Z,15.30
2019-04-20T18:53:33.614Z,15.16
2019-04-20T18:56:03.996Z,15.06
2019-04-20T18:58:37.424Z,14.95
2019-04-20T19:01:12.954Z,14.84
2019-04-20T19:03:47.727Z,14.77
2019-04-20T19:06:21.321Z,14.69
2019-04-20T19:08:56.013Z,14.63
2019-04-20T19:11:30.898Z,14.54
2019-04-20T19:14:42.739Z,14.50
2019-04-20T19:17:45.168Z,14.43
2019-04-20T19:20:28.957Z,14.35
2019-04-20T19:23:02.188Z,14.28
2019-04-20T19:25:38.910Z,14.21
2019-04-20T19:28:13.948Z,14.14
2019-04-20T19:31:00.081Z,14.08
2019-04-20T19:33:33.238Z,14.02
2019-04-20T19:36:05.388Z,13.96
2019-04-20T19:38:42.037Z,13.81
2019-04-20T19:41:25.351Z,13.74
2019-04-20T19:44:04.313Z,13.62
2019-04-20T19:46:53.685Z,13.39
2019-04-20T19:49:19.378Z,13.09
2019-04-20T19:52:15.553Z,12.98
2019-04-20T19:54:43.095Z,12.84
2019-04-20T19:57:09.430Z,12.91
2019-04-20T19:59:38.846Z,12.90
2019-04-20T20:02:09.566Z,12.89
2019-04-20T20:04:53.291Z,12.90
2019-04-20T20:07:31.088Z,12.89
2019-04-20T20:10:06.029Z,12.86
2019-04-20T20:12:47.061Z,12.84
2019-04-20T20:15:22.694Z,12.84
2019-04-20T20:18:14.061Z,12.85
2019-04-20T20:20:50.057Z,12.83
2019-04-20T20:23:03.687Z,12.83
2019-04-20T20:25:43.169Z,12.84
2019-04-20T20:28:28.697Z,12.78
2019-04-20T20:31:05.051Z,12.72
2019-04-20T20:33:43.924Z,12.66
2019-04-20T20:36:15.621Z,12.61
2019-04-20T20:38:51.782Z,12.54
2019-04-20T20:41:33.135Z,12.49
2019-04-20T20:44:05.859Z,12.46
2019-04-20T20:46:55.022Z,12.45
2019-04-20T20:49:38.838Z,12.45
2019-04-20T20:52:17.384Z,12.44
2019-04-20T20:54:47.712Z,12.40
2019-04-20T20:57:13.232Z,12.41
2019-04-20T20:59:54.826Z,12.37
2019-04-20T21:02:33.722Z,12.36
2019-04-20T21:04:57.862Z,12.33
2019-04-20T21:07:31.827Z,12.29
2019-04-20T21:10:15.424Z,12.26
2019-04-20T21:13:17.286Z,12.20
2019-04-20T21:16:01.264Z,12.19
2019-04-20T21:18:50.448Z,12.13
2019-04-20T21:21:28.744Z,12.07
2019-04-20T21:24:05.137Z,12.02
2019-04-20T21:26:38.739Z,11.98
2019-04-20T21:29:08.145Z,11.90
2019-04-20T21:31:56.791Z,11.86
2019-04-20T21:34:24.142Z,11.82
2019-04-20T21:37:05.631Z,11.75
2019-04-20T21:39:40.949Z,11.68
2019-04-20T21:42:14.386Z,11.67
2019-04-20T21:44:47.223Z,11.62
2019-04-20T21:47:23.829Z,11.59
2019-04-20T21:50:11.097Z,11.54
2019-04-20T21:52:36.110Z,11.54
2019-04-20T21:55:03.780Z,11.45
2019-04-20T21:57:43.375Z,11.41
2019-04-20T22:00:25.046Z,11.37
2019-04-20T22:02:57.653Z,11.35
2019-04-20T22:05:26.338Z,11.31
2019-04-20T22:08:03.246Z,11.28
2019-04-20T22:10:34.631Z,11.27
2019-04-20T22:13:07.905Z,11.24
2019-04-20T22:15:51.675Z,11.21
2019-04-20T22:18:21.504Z,11.26
2019-04-20T22:21:04.694Z,11.26
2019-04-20T22:23:43.426Z,11.23
2019-04-20T22:26:12.019Z,11.17
2019-04-20T22:28:36.506Z,11.13
2019-04-20T22:31:11.908Z,11.11
2019-04-20T22:33:46.841Z,11.11
2019-04-20T22:36:24.078Z,11.07
2019-04-20T22:39:15.607Z,11.07
2019-04-20T22:41:58.624Z,11.03
2019-04-20T22:44:28.409Z,11.00
2019-04-20T22:47:05.404Z,10.97
2019-04-20T22:49:50.194Z,10.92
2019-04-20T22:52:26.595Z,10.86
2019-04-20T22:55:10.076Z,10.78
2019-04-20T22:57:36.317Z,10.70
2019-04-20T23:00:06.258Z,10.65
2019-04-20T23:02:36.538Z,10.60
2019-04-20T23:05:10.937Z,10.55
2019-04-20T23:07:44.380Z,10.50
2019-04-20T23:10:25.421Z,10.46
2019-04-20T23:12:56.205Z,10.44
2019-04-20T23:15:28.046Z,10.38
2019-04-20T23:18:02.230Z,10.38
2019-04-20T23:20:38.432Z,10.38
2019-04-20T23:23:11.118Z,10.33
2019-04-20T23:25:45.157Z,10.24
2019-04-20T23:28:20.847Z,10.18
2019-04-20T23:31:00.098Z,10.08
2019-04-20T23:33:28.087Z,9.96
2019-04-20T23:36:04.252Z,9.88
2019-04-20T23:38:36.731Z,9.79
2019-04-20T23:41:10.080Z,9.69
2019-04-20T23:43:49.498Z,9.63
2019-04-20T23:46:45.275Z,9.59
2019-04-20T23:49:27.754Z,9.53
2019-04-20T23:52:27.035Z,9.46
2019-04-20T23:54:36.798Z,9.43
2019-04-20T23:57:08.128Z,9.40
2019-04-20T23:59:44.462Z,9.37
